Share

Yates Center, KS

KS (KKSBURLI4) Elev 1050 ft | 38.19 °N, 95.74 °W | Change Station

Current weather conditions updated 1 second ago

Haze
Haze
49.8 °F
Feels Like 50 °F
N
0.0
Wind Variable Wind from ESE
Gusts 3.4 mph
Sunrise 6:42 AM
Sunset 8:02 PM
Moon Waning Gibbous

Today is forecast to be Warmer than yesterday.

Pressure 30.12 in
Visibility 5.0 miles
Clouds Clear
Windchill 50 °F
Dew Point 27 °F
Humidity 41%
Rainfall 0.00 in
Snow Depth Not available.
UV 0 out of 16
Pollen 10.20 out of 12
Air Quality Not available.
Flu Activity No Activity
METAR KEMP 190753Z AUTO 15006KT 5SM HZ CLR 09/04 A3012 RMK AO2 SLP198 T00890044

More Conditions Fewer Conditions

Pressure 30.12 in
Visibility 5.0 miles
Clouds Clear
Windchill 50 °F
Dew Point 27 °F
Humidity 41%
Rainfall 0.00 in
Snow Depth Not available.
UV 0 out of 16
Pollen 10.20 out of 12
Air Quality Not available.
Flu Activity No Activity
METAR KEMP 190753Z AUTO 15006KT 5SM HZ CLR 09/04 A3012 RMK AO2 SLP198 T00890044

More Conditions Fewer Conditions

10-Day Weather Forecast

Almanac

Astronomy

Apr. 19, 2014 Rise Set
Actual Time 6:42 AM CDT 8:02 PM CDT
Civil Twilight 6:14 AM CDT 8:29 PM CDT
Nautical Twilight 5:41 AM CDT 9:02 PM CDT
Astronomical Twilight 5:07 AM CDT 9:37 PM CDT
Moon No Moon Rise 10:03 AM CDT
Length of Visible Light 14h 15m
Length of Day
13h 20m
Tomorrow will be 2m 17s longer.
Waning Gibbous, 82% of the Moon is Illuminated
Today
Waning Gibbous
Apr 22
Last Quarter
Apr 29
New
May 6
First Quarter
May 14
Full

Today's Extremes

State Highs State Lows

Community

  • Sunset Silhouettes
    Sunset Silhouettes
  • FL sunset Perico Isle
    FL sunset Perico Isle
  • Cloudy spring view
    Cloudy spring view
  • Old barn
    Old barn
  • What's for Lunch?
    What's for Lunch?

WunderPhotos

Upload Photos

1,702,670 photos uploaded!

WunderBlogs® & News

Nearby

Snow Depth

Station Depth Elevation
No new snow has been reported.

Coastal Water Temperatures

Place Temperature
No Stations Reporting

Earthquake Activity

City Distance Mag. Time & Date
Perry, Oklahoma 138 miles 2.5 1:42 PM CDT
2014-04-14
Perry, Oklahoma 139 miles 2.6 1:20 PM CDT
2014-04-14
McCord, Oklahoma 123 miles 2.9 1:33 PM CDT
2014-04-12
Langston, Oklahoma 159 miles 3.3 11:13 AM CDT
2014-04-12
Minimum magnitude displayed is 2.5.

Nearby Weather Stations

Station Location Temp. Windchill Dew Point Humidity Wind Precip. Elev Updated Type
MesoWest LEROY , Le Roy, KS 50 °F - - - North  at  - 0.00 in / hr 993 ft 1:50 AM CDT MADIS
Toronto, KS, Toronto, KS 53.4 °F - 42 °F 66% SSE  at  0.0 mph 0.00 in / hr 971 ft 12:15 AM CDT Normal
KS, Burlington, KS 49.8 °F 50 °F 27 °F 41% ESE  at  0.0 mph 0.00 in / hr 1050 ft 3:18 AM CDT Rapid Fire
HADS FALL RIVER LAKE NEAR FALL RIVER KS, Fall River, KS 48 °F 47 °F 36 °F 62% South  at  4 mph 0.00 in / hr 1020 ft 2:00 AM CDT MADIS

Show More Stations Show Fewer Stations

What do you think?

We're not finished. Please let us know what you like, what you don't like, and what you are still missing.